sensor_id;sensor_type;location;lat;lon;timestamp;temperature;humidity
24844;DHT22;12921;51.392;12.240;2023-10-31T16:18:38;13.00;99.90
24844;DHT22;12921;51.392;12.240;2023-10-31T16:21:04;12.70;99.90
24844;DHT22;12921;51.392;12.240;2023-10-31T16:23:35;12.70;99.90
24844;DHT22;12921;51.392;12.240;2023-10-31T16:26:00;12.60;99.90
24844;DHT22;12921;51.392;12.240;2023-10-31T16:28:26;12.60;99.90
24844;DHT22;12921;51.392;12.240;2023-10-31T16:30:54;12.60;99.90
24844;DHT22;12921;51.392;12.240;2023-10-31T16:33:20;12.50;99.90
24844;DHT22;12921;51.392;12.240;2023-10-31T16:35:45;12.50;99.90
24844;DHT22;12921;51.392;12.240;2023-10-31T16:38:11;12.50;99.90
24844;DHT22;12921;51.392;12.240;2023-10-31T16:40:37;12.40;99.90
24844;DHT22;12921;51.392;12.240;2023-10-31T16:43:02;12.40;99.90
24844;DHT22;12921;51.392;12.240;2023-10-31T16:45:28;12.40;99.90
24844;DHT22;12921;51.392;12.240;2023-10-31T16:47:54;12.50;99.90
24844;DHT22;12921;51.392;12.240;2023-10-31T16:50:19;12.40;99.90
24844;DHT22;12921;51.392;12.240;2023-10-31T16:52:45;12.40;99.90
24844;DHT22;12921;51.392;12.240;2023-10-31T16:55:11;12.40;99.90
24844;DHT22;12921;51.392;12.240;2023-10-31T16:57:37;12.40;99.90
24844;DHT22;12921;51.392;12.240;2023-10-31T17:00:03;12.40;99.90
24844;DHT22;12921;51.392;12.240;2023-10-31T17:02:29;12.40;99.90
24844;DHT22;12921;51.392;12.240;2023-10-31T17:04:55;12.40;99.90
24844;DHT22;12921;51.392;12.240;2023-10-31T17:07:23;12.30;99.90
24844;DHT22;12921;51.392;12.240;2023-10-31T17:09:50;12.30;99.90
24844;DHT22;12921;51.392;12.240;2023-10-31T17:12:16;12.30;99.90
24844;DHT22;12921;51.392;12.240;2023-10-31T17:14:42;12.40;99.90
24844;DHT22;12921;51.392;12.240;2023-10-31T17:17:07;12.30;99.90
24844;DHT22;12921;51.392;12.240;2023-10-31T17:19:33;12.30;99.90
24844;DHT22;12921;51.392;12.240;2023-10-31T17:21:58;12.20;99.90
24844;DHT22;12921;51.392;12.240;2023-10-31T17:24:24;12.30;99.90
24844;DHT22;12921;51.392;12.240;2023-10-31T17:26:50;12.20;99.90
24844;DHT22;12921;51.392;12.240;2023-10-31T17:29:16;12.20;99.90
24844;DHT22;12921;51.392;12.240;2023-10-31T17:31:41;12.20;99.90
24844;DHT22;12921;51.392;12.240;2023-10-31T17:34:07;12.20;99.90
24844;DHT22;12921;51.392;12.240;2023-10-31T17:36:32;12.10;99.90
24844;DHT22;12921;51.392;12.240;2023-10-31T17:38:58;12.10;99.90
24844;DHT22;12921;51.392;12.240;2023-10-31T17:41:24;12.20;99.90
24844;DHT22;12921;51.392;12.240;2023-10-31T17:43:49;12.20;99.90
24844;DHT22;12921;51.392;12.240;2023-10-31T17:46:15;12.20;99.90
24844;DHT22;12921;51.392;12.240;2023-10-31T17:48:41;12.20;99.90
24844;DHT22;12921;51.392;12.240;2023-10-31T17:51:07;12.20;99.90
24844;DHT22;12921;51.392;12.240;2023-10-31T17:53:32;12.10;99.90
24844;DHT22;12921;51.392;12.240;2023-10-31T17:55:58;12.10;99.90
24844;DHT22;12921;51.392;12.240;2023-10-31T17:58:23;12.20;99.90
24844;DHT22;12921;51.392;12.240;2023-10-31T18:00:49;12.20;99.90
24844;DHT22;12921;51.392;12.240;2023-10-31T18:03:15;12.20;99.90
24844;DHT22;12921;51.392;12.240;2023-10-31T18:05:41;12.20;99.90
24844;DHT22;12921;51.392;12.240;2023-10-31T18:08:07;12.10;99.90
24844;DHT22;12921;51.392;12.240;2023-10-31T18:10:33;12.20;99.90
24844;DHT22;12921;51.392;12.240;2023-10-31T18:12:58;12.20;99.90
24844;DHT22;12921;51.392;12.240;2023-10-31T18:15:24;12.20;99.90
24844;DHT22;12921;51.392;12.240;2023-10-31T18:17:50;12.20;99.90
24844;DHT22;12921;51.392;12.240;2023-10-31T18:20:15;12.30;99.90
24844;DHT22;12921;51.392;12.240;2023-10-31T18:22:41;12.20;99.90
24844;DHT22;12921;51.392;12.240;2023-10-31T18:25:07;12.30;99.90
24844;DHT22;12921;51.392;12.240;2023-10-31T18:27:33;12.30;99.90
24844;DHT22;12921;51.392;12.240;2023-10-31T18:29:58;12.30;99.90
24844;DHT22;12921;51.392;12.240;2023-10-31T18:32:24;12.30;99.90
24844;DHT22;12921;51.392;12.240;2023-10-31T18:34:50;12.40;99.90
24844;DHT22;12921;51.392;12.240;2023-10-31T18:37:15;12.40;99.90
24844;DHT22;12921;51.392;12.240;2023-10-31T18:39:41;12.30;99.90
24844;DHT22;12921;51.392;12.240;2023-10-31T18:42:07;12.30;99.90
24844;DHT22;12921;51.392;12.240;2023-10-31T18:44:37;12.20;99.90
24844;DHT22;12921;51.392;12.240;2023-10-31T18:47:04;12.10;99.90
24844;DHT22;12921;51.392;12.240;2023-10-31T18:49:29;12.10;99.90
24844;DHT22;12921;51.392;12.240;2023-10-31T18:51:55;12.10;99.90
24844;DHT22;12921;51.392;12.240;2023-10-31T18:54:21;12.00;99.90
24844;DHT22;12921;51.392;12.240;2023-10-31T18:56:47;11.90;99.90
24844;DHT22;12921;51.392;12.240;2023-10-31T18:59:12;12.00;99.90
24844;DHT22;12921;51.392;12.240;2023-10-31T19:01:38;12.00;99.90
24844;DHT22;12921;51.392;12.240;2023-10-31T19:04:04;12.00;99.90
24844;DHT22;12921;51.392;12.240;2023-10-31T19:06:30;12.00;99.90
24844;DHT22;12921;51.392;12.240;2023-10-31T19:08:57;12.00;99.90
24844;DHT22;12921;51.392;12.240;2023-10-31T19:11:22;12.00;99.90
24844;DHT22;12921;51.392;12.240;2023-10-31T19:13:48;11.90;99.90
24844;DHT22;12921;51.392;12.240;2023-10-31T19:16:13;11.80;99.90
24844;DHT22;12921;51.392;12.240;2023-10-31T19:18:39;11.70;99.90
24844;DHT22;12921;51.392;12.240;2023-10-31T19:21:05;11.70;99.90
24844;DHT22;12921;51.392;12.240;2023-10-31T19:23:30;11.60;99.90
24844;DHT22;12921;51.392;12.240;2023-10-31T19:25:56;11.60;99.90
24844;DHT22;12921;51.392;12.240;2023-10-31T19:28:21;11.60;99.90
24844;DHT22;12921;51.392;12.240;2023-10-31T19:30:48;11.50;99.90
24844;DHT22;12921;51.392;12.240;2023-10-31T19:33:14;11.50;99.90
24844;DHT22;12921;51.392;12.240;2023-10-31T19:35:39;11.50;99.90
24844;DHT22;12921;51.392;12.240;2023-10-31T19:38:05;11.30;99.90
24844;DHT22;12921;51.392;12.240;2023-10-31T19:40:31;11.30;99.90
24844;DHT22;12921;51.392;12.240;2023-10-31T19:42:57;11.30;99.90
24844;DHT22;12921;51.392;12.240;2023-10-31T19:45:27;11.30;99.90
24844;DHT22;12921;51.392;12.240;2023-10-31T19:47:53;11.30;99.90
24844;DHT22;12921;51.392;12.240;2023-10-31T19:50:18;11.30;99.90
24844;DHT22;12921;51.392;12.240;2023-10-31T19:52:46;11.30;99.90
24844;DHT22;12921;51.392;12.240;2023-10-31T19:55:11;11.30;99.90
24844;DHT22;12921;51.392;12.240;2023-10-31T19:57:37;11.20;99.90
24844;DHT22;12921;51.392;12.240;2023-10-31T20:00:05;11.20;99.90
24844;DHT22;12921;51.392;12.240;2023-10-31T20:02:31;11.10;99.90
24844;DHT22;12921;51.392;12.240;2023-10-31T20:04:57;11.10;99.90
24844;DHT22;12921;51.392;12.240;2023-10-31T20:07:23;11.10;99.90
24844;DHT22;12921;51.392;12.240;2023-10-31T20:09:48;11.10;99.90
24844;DHT22;12921;51.392;12.240;2023-10-31T20:12:14;11.00;99.90
24844;DHT22;12921;51.392;12.240;2023-10-31T20:14:39;11.10;99.90
24844;DHT22;12921;51.392;12.240;2023-10-31T20:17:05;11.10;99.90
24844;DHT22;12921;51.392;12.240;2023-10-31T20:19:31;11.10;99.90
24844;DHT22;12921;51.392;12.240;2023-10-31T20:21:57;11.10;99.90
24844;DHT22;12921;51.392;12.240;2023-10-31T20:24:23;11.10;99.90
24844;DHT22;12921;51.392;12.240;2023-10-31T20:26:51;11.20;99.90
24844;DHT22;12921;51.392;12.240;2023-10-31T20:29:17;11.20;99.90
24844;DHT22;12921;51.392;12.240;2023-10-31T20:31:43;11.30;99.90
24844;DHT22;12921;51.392;12.240;2023-10-31T20:34:08;11.20;99.90
24844;DHT22;12921;51.392;12.240;2023-10-31T20:36:34;11.20;99.90
24844;DHT22;12921;51.392;12.240;2023-10-31T20:39:03;11.20;99.90
24844;DHT22;12921;51.392;12.240;2023-10-31T20:41:28;11.10;99.90
24844;DHT22;12921;51.392;12.240;2023-10-31T20:43:55;11.10;99.90
24844;DHT22;12921;51.392;12.240;2023-10-31T20:46:21;11.00;99.90
24844;DHT22;12921;51.392;12.240;2023-10-31T20:48:47;10.90;99.90
24844;DHT22;12921;51.392;12.240;2023-10-31T20:51:13;10.90;99.90
24844;DHT22;12921;51.392;12.240;2023-10-31T20:53:39;10.80;99.90
24844;DHT22;12921;51.392;12.240;2023-10-31T20:56:06;10.70;99.90
24844;DHT22;12921;51.392;12.240;2023-10-31T20:58:34;10.70;99.90
24844;DHT22;12921;51.392;12.240;2023-10-31T21:01:00;10.60;99.90
24844;DHT22;12921;51.392;12.240;2023-10-31T21:03:26;10.60;99.90
24844;DHT22;12921;51.392;12.240;2023-10-31T21:05:53;10.50;99.90
24844;DHT22;12921;51.392;12.240;2023-10-31T21:08:20;10.50;99.90
24844;DHT22;12921;51.392;12.240;2023-10-31T21:10:46;10.40;99.90
24844;DHT22;12921;51.392;12.240;2023-10-31T21:13:11;10.30;99.90
24844;DHT22;12921;51.392;12.240;2023-10-31T21:15:37;10.30;99.90
24844;DHT22;12921;51.392;12.240;2023-10-31T21:18:02;10.20;99.90
24844;DHT22;12921;51.392;12.240;2023-10-31T21:20:28;10.10;99.90
24844;DHT22;12921;51.392;12.240;2023-10-31T21:22:55;10.10;99.90
24844;DHT22;12921;51.392;12.240;2023-10-31T21:25:21;10.10;99.90
24844;DHT22;12921;51.392;12.240;2023-10-31T21:27:47;10.10;99.90
24844;DHT22;12921;51.392;12.240;2023-10-31T21:30:16;10.10;99.90
24844;DHT22;12921;51.392;12.240;2023-10-31T21:32:43;10.00;99.90
24844;DHT22;12921;51.392;12.240;2023-10-31T21:35:11;10.00;99.90
24844;DHT22;12921;51.392;12.240;2023-10-31T21:37:39;10.00;99.90
24844;DHT22;12921;51.392;12.240;2023-10-31T21:40:05;9.90;99.90
24844;DHT22;12921;51.392;12.240;2023-10-31T21:42:31;10.00;99.90
24844;DHT22;12921;51.392;12.240;2023-10-31T21:44:57;10.00;99.90
24844;DHT22;12921;51.392;12.240;2023-10-31T21:47:23;10.00;99.90
24844;DHT22;12921;51.392;12.240;2023-10-31T21:49:49;10.20;99.90
24844;DHT22;12921;51.392;12.240;2023-10-31T21:52:14;10.20;99.90
24844;DHT22;12921;51.392;12.240;2023-10-31T21:54:40;10.20;99.90
24844;DHT22;12921;51.392;12.240;2023-10-31T21:57:06;10.20;99.90
24844;DHT22;12921;51.392;12.240;2023-10-31T21:59:31;10.20;99.90
24844;DHT22;12921;51.392;12.240;2023-10-31T22:01:57;10.30;99.90
24844;DHT22;12921;51.392;12.240;2023-10-31T22:04:22;10.30;99.90
24844;DHT22;12921;51.392;12.240;2023-10-31T22:06:49;10.30;99.90
24844;DHT22;12921;51.392;12.240;2023-10-31T22:09:14;10.40;99.90
24844;DHT22;12921;51.392;12.240;2023-10-31T22:11:42;10.40;99.90
24844;DHT22;12921;51.392;12.240;2023-10-31T22:14:08;10.40;99.90
24844;DHT22;12921;51.392;12.240;2023-10-31T22:16:34;10.30;99.90
24844;DHT22;12921;51.392;12.240;2023-10-31T22:19:00;10.30;99.90
24844;DHT22;12921;51.392;12.240;2023-10-31T22:21:29;10.20;99.90
24844;DHT22;12921;51.392;12.240;2023-10-31T22:23:54;10.10;99.90
24844;DHT22;12921;51.392;12.240;2023-10-31T22:26:20;10.10;99.90
24844;DHT22;12921;51.392;12.240;2023-10-31T22:28:46;10.00;99.90
24844;DHT22;12921;51.392;12.240;2023-10-31T22:31:13;9.90;99.90
24844;DHT22;12921;51.392;12.240;2023-10-31T22:33:39;9.80;99.90
24844;DHT22;12921;51.392;12.240;2023-10-31T22:36:05;9.70;99.90
24844;DHT22;12921;51.392;12.240;2023-10-31T22:38:31;9.70;99.90
24844;DHT22;12921;51.392;12.240;2023-10-31T22:40:57;9.60;99.90
24844;DHT22;12921;51.392;12.240;2023-10-31T22:43:22;9.60;99.90
24844;DHT22;12921;51.392;12.240;2023-10-31T22:45:48;9.50;99.90
24844;DHT22;12921;51.392;12.240;2023-10-31T22:48:15;9.50;99.90
24844;DHT22;12921;51.392;12.240;2023-10-31T22:50:40;9.40;99.90
24844;DHT22;12921;51.392;12.240;2023-10-31T22:53:06;9.30;99.90
24844;DHT22;12921;51.392;12.240;2023-10-31T22:55:31;9.30;99.90
24844;DHT22;12921;51.392;12.240;2023-10-31T22:57:57;9.20;99.90
24844;DHT22;12921;51.392;12.240;2023-10-31T23:00:23;9.30;99.90
24844;DHT22;12921;51.392;12.240;2023-10-31T23:02:52;9.30;99.90
24844;DHT22;12921;51.392;12.240;2023-10-31T23:05:18;9.40;99.90
24844;DHT22;12921;51.392;12.240;2023-10-31T23:07:44;9.40;99.90
24844;DHT22;12921;51.392;12.240;2023-10-31T23:10:10;9.50;99.90
24844;DHT22;12921;51.392;12.240;2023-10-31T23:12:35;9.50;99.90
24844;DHT22;12921;51.392;12.240;2023-10-31T23:15:02;9.60;99.90
24844;DHT22;12921;51.392;12.240;2023-10-31T23:17:28;9.60;99.90
24844;DHT22;12921;51.392;12.240;2023-10-31T23:19:54;9.70;99.90
24844;DHT22;12921;51.392;12.240;2023-10-31T23:22:23;9.70;99.90
24844;DHT22;12921;51.392;12.240;2023-10-31T23:24:48;9.80;99.90
24844;DHT22;12921;51.392;12.240;2023-10-31T23:27:14;9.80;99.90
24844;DHT22;12921;51.392;12.240;2023-10-31T23:29:41;9.80;99.90
24844;DHT22;12921;51.392;12.240;2023-10-31T23:32:07;9.90;99.90
24844;DHT22;12921;51.392;12.240;2023-10-31T23:34:32;9.90;99.90
24844;DHT22;12921;51.392;12.240;2023-10-31T23:36:58;10.00;99.90
24844;DHT22;12921;51.392;12.240;2023-10-31T23:39:24;10.10;99.90
24844;DHT22;12921;51.392;12.240;2023-10-31T23:41:49;10.10;99.90
24844;DHT22;12921;51.392;12.240;2023-10-31T23:44:15;10.10;99.90
24844;DHT22;12921;51.392;12.240;2023-10-31T23:46:41;10.20;99.90
24844;DHT22;12921;51.392;12.240;2023-10-31T23:49:06;10.30;99.90
24844;DHT22;12921;51.392;12.240;2023-10-31T23:51:32;10.30;99.90
24844;DHT22;12921;51.392;12.240;2023-10-31T23:53:57;10.30;99.90
24844;DHT22;12921;51.392;12.240;2023-10-31T23:56:23;10.40;99.90
24844;DHT22;12921;51.392;12.240;2023-10-31T23:58:49;10.60;99.90
